sensor_id;sensor_type;location;lat;lon;timestamp;pressure;altitude;pressure_sealevel;temperature;humidity
40930;BME280;26659;47.962;21.652;2022-08-19T00:00:05;99837.16;;;19.80;100.00
40930;BME280;26659;47.962;21.652;2022-08-19T00:02:31;99828.25;;;19.90;100.00
40930;BME280;26659;47.962;21.652;2022-08-19T00:04:57;99836.72;;;20.04;100.00
40930;BME280;26659;47.962;21.652;2022-08-19T00:07:23;99832.13;;;20.14;100.00
40930;BME280;26659;47.962;21.652;2022-08-19T00:09:48;99835.38;;;20.06;100.00
40930;BME280;26659;47.962;21.652;2022-08-19T00:12:13;99834.00;;;19.99;100.00
40930;BME280;26659;47.962;21.652;2022-08-19T00:14:40;99835.53;;;19.79;100.00
40930;BME280;26659;47.962;21.652;2022-08-19T00:17:07;99834.41;;;19.75;100.00
40930;BME280;26659;47.962;21.652;2022-08-19T00:19:33;99841.00;;;19.84;100.00
40930;BME280;26659;47.962;21.652;2022-08-19T00:21:59;99838.50;;;19.73;100.00
40930;BME280;26659;47.962;21.652;2022-08-19T00:24:25;99829.00;;;19.75;100.00
40930;BME280;26659;47.962;21.652;2022-08-19T00:26:51;99831.19;;;19.78;100.00
40930;BME280;26659;47.962;21.652;2022-08-19T00:29:22;99833.66;;;19.80;100.00
40930;BME280;26659;47.962;21.652;2022-08-19T00:31:49;99824.75;;;19.94;100.00
40930;BME280;26659;47.962;21.652;2022-08-19T00:34:15;99831.94;;;19.63;100.00
40930;BME280;26659;47.962;21.652;2022-08-19T00:36:41;99831.06;;;19.58;100.00
40930;BME280;26659;47.962;21.652;2022-08-19T00:39:08;99847.56;;;19.51;100.00
40930;BME280;26659;47.962;21.652;2022-08-19T00:41:34;99831.84;;;19.53;100.00
40930;BME280;26659;47.962;21.652;2022-08-19T00:44:27;99839.53;;;19.66;100.00
40930;BME280;26659;47.962;21.652;2022-08-19T00:46:55;99840.63;;;19.65;100.00
40930;BME280;26659;47.962;21.652;2022-08-19T00:49:29;99834.06;;;19.61;100.00
40930;BME280;26659;47.962;21.652;2022-08-19T00:52:07;99844.56;;;19.47;100.00
40930;BME280;26659;47.962;21.652;2022-08-19T00:54:35;99844.47;;;19.32;100.00
40930;BME280;26659;47.962;21.652;2022-08-19T00:57:04;99845.78;;;19.24;100.00
40930;BME280;26659;47.962;21.652;2022-08-19T00:59:31;99851.75;;;19.27;100.00
40930;BME280;26659;47.962;21.652;2022-08-19T01:01:59;99842.88;;;19.36;100.00
40930;BME280;26659;47.962;21.652;2022-08-19T01:04:24;99854.75;;;19.25;100.00
40930;BME280;26659;47.962;21.652;2022-08-19T01:06:50;99860.38;;;19.18;100.00
40930;BME280;26659;47.962;21.652;2022-08-19T01:09:15;99856.88;;;19.23;100.00
40930;BME280;26659;47.962;21.652;2022-08-19T01:11:43;99865.00;;;19.18;100.00
40930;BME280;26659;47.962;21.652;2022-08-19T01:14:10;99857.09;;;19.16;100.00
40930;BME280;26659;47.962;21.652;2022-08-19T01:16:37;99856.78;;;19.08;100.00
40930;BME280;26659;47.962;21.652;2022-08-19T01:19:08;99861.72;;;19.16;100.00
40930;BME280;26659;47.962;21.652;2022-08-19T01:21:43;99857.06;;;19.11;100.00
40930;BME280;26659;47.962;21.652;2022-08-19T01:24:11;99856.56;;;19.14;100.00
40930;BME280;26659;47.962;21.652;2022-08-19T01:26:41;99862.50;;;19.11;100.00
40930;BME280;26659;47.962;21.652;2022-08-19T01:29:08;99860.91;;;19.20;100.00
40930;BME280;26659;47.962;21.652;2022-08-19T01:31:35;99864.94;;;19.13;100.00
40930;BME280;26659;47.962;21.652;2022-08-19T01:34:01;99863.03;;;19.13;100.00
40930;BME280;26659;47.962;21.652;2022-08-19T01:36:40;99868.13;;;19.05;100.00
40930;BME280;26659;47.962;21.652;2022-08-19T01:39:12;99863.50;;;19.00;100.00
40930;BME280;26659;47.962;21.652;2022-08-19T01:41:38;99857.78;;;19.02;100.00
40930;BME280;26659;47.962;21.652;2022-08-19T01:44:06;99862.63;;;18.94;100.00
40930;BME280;26659;47.962;21.652;2022-08-19T01:46:32;99859.06;;;18.89;100.00
40930;BME280;26659;47.962;21.652;2022-08-19T01:48:58;99865.00;;;18.86;100.00
40930;BME280;26659;47.962;21.652;2022-08-19T01:51:24;99861.56;;;18.95;100.00
40930;BME280;26659;47.962;21.652;2022-08-19T01:53:51;99861.09;;;19.09;100.00
40930;BME280;26659;47.962;21.652;2022-08-19T01:56:18;99863.31;;;19.12;100.00
40930;BME280;26659;47.962;21.652;2022-08-19T01:58:49;99876.09;;;19.16;100.00
40930;BME280;26659;47.962;21.652;2022-08-19T02:01:17;99863.53;;;19.05;100.00
40930;BME280;26659;47.962;21.652;2022-08-19T02:03:43;99867.81;;;19.01;100.00
40930;BME280;26659;47.962;21.652;2022-08-19T02:06:08;99861.25;;;18.92;100.00
40930;BME280;26659;47.962;21.652;2022-08-19T02:08:36;99856.19;;;18.73;100.00
40930;BME280;26659;47.962;21.652;2022-08-19T02:11:02;99858.09;;;18.73;100.00
40930;BME280;26659;47.962;21.652;2022-08-19T02:13:28;99850.31;;;18.82;100.00
40930;BME280;26659;47.962;21.652;2022-08-19T02:15:54;99848.63;;;18.75;100.00
40930;BME280;26659;47.962;21.652;2022-08-19T02:18:19;99850.56;;;18.80;100.00
40930;BME280;26659;47.962;21.652;2022-08-19T02:20:45;99844.13;;;18.86;100.00
40930;BME280;26659;47.962;21.652;2022-08-19T02:23:13;99843.00;;;18.82;100.00
40930;BME280;26659;47.962;21.652;2022-08-19T02:25:39;99843.59;;;18.89;100.00
40930;BME280;26659;47.962;21.652;2022-08-19T02:28:05;99842.09;;;18.71;100.00
40930;BME280;26659;47.962;21.652;2022-08-19T02:30:30;99837.88;;;18.86;100.00
40930;BME280;26659;47.962;21.652;2022-08-19T02:32:56;99826.94;;;18.75;100.00
40930;BME280;26659;47.962;21.652;2022-08-19T02:35:22;99830.91;;;18.68;100.00
40930;BME280;26659;47.962;21.652;2022-08-19T02:37:48;99823.13;;;18.71;100.00
40930;BME280;26659;47.962;21.652;2022-08-19T02:40:33;99834.00;;;18.76;100.00
40930;BME280;26659;47.962;21.652;2022-08-19T02:43:07;99824.06;;;18.87;100.00
40930;BME280;26659;47.962;21.652;2022-08-19T02:45:38;99818.63;;;18.82;100.00
40930;BME280;26659;47.962;21.652;2022-08-19T02:48:05;99810.97;;;18.74;100.00
40930;BME280;26659;47.962;21.652;2022-08-19T02:50:32;99813.28;;;18.65;100.00
40930;BME280;26659;47.962;21.652;2022-08-19T02:52:57;99820.84;;;18.63;100.00
40930;BME280;26659;47.962;21.652;2022-08-19T02:55:23;99800.84;;;18.69;100.00
40930;BME280;26659;47.962;21.652;2022-08-19T02:57:48;99806.72;;;18.56;100.00
40930;BME280;26659;47.962;21.652;2022-08-19T03:00:14;99811.34;;;18.61;100.00
40930;BME280;26659;47.962;21.652;2022-08-19T03:02:40;99809.09;;;18.52;100.00
40930;BME280;26659;47.962;21.652;2022-08-19T03:05:08;99809.41;;;18.56;100.00
40930;BME280;26659;47.962;21.652;2022-08-19T03:07:35;99810.22;;;18.57;100.00
40930;BME280;26659;47.962;21.652;2022-08-19T03:10:00;99807.69;;;18.45;100.00
40930;BME280;26659;47.962;21.652;2022-08-19T03:12:26;99809.22;;;18.36;100.00
40930;BME280;26659;47.962;21.652;2022-08-19T03:14:51;99810.09;;;18.41;100.00
40930;BME280;26659;47.962;21.652;2022-08-19T03:17:18;99816.47;;;18.30;100.00
40930;BME280;26659;47.962;21.652;2022-08-19T03:19:44;99806.59;;;18.19;100.00
40930;BME280;26659;47.962;21.652;2022-08-19T03:22:09;99811.25;;;18.23;100.00
40930;BME280;26659;47.962;21.652;2022-08-19T03:24:35;99819.44;;;18.28;100.00
40930;BME280;26659;47.962;21.652;2022-08-19T03:27:00;99821.31;;;18.28;100.00
40930;BME280;26659;47.962;21.652;2022-08-19T03:29:27;99828.38;;;18.56;100.00
40930;BME280;26659;47.962;21.652;2022-08-19T03:31:53;99833.63;;;18.68;100.00
40930;BME280;26659;47.962;21.652;2022-08-19T03:34:31;99835.59;;;18.45;100.00
40930;BME280;26659;47.962;21.652;2022-08-19T03:36:58;99839.56;;;18.38;100.00
40930;BME280;26659;47.962;21.652;2022-08-19T03:39:25;99847.16;;;18.41;100.00
40930;BME280;26659;47.962;21.652;2022-08-19T03:41:52;99851.47;;;18.37;100.00
40930;BME280;26659;47.962;21.652;2022-08-19T03:44:20;99859.66;;;18.42;100.00
40930;BME280;26659;47.962;21.652;2022-08-19T03:46:52;99869.31;;;18.33;100.00
40930;BME280;26659;47.962;21.652;2022-08-19T03:49:20;99866.59;;;18.33;100.00
40930;BME280;26659;47.962;21.652;2022-08-19T03:51:47;99870.38;;;18.32;100.00
40930;BME280;26659;47.962;21.652;2022-08-19T03:54:15;99860.31;;;18.27;100.00
40930;BME280;26659;47.962;21.652;2022-08-19T03:56:42;99861.47;;;18.36;100.00
40930;BME280;26659;47.962;21.652;2022-08-19T03:59:15;99857.16;;;18.35;100.00
40930;BME280;26659;47.962;21.652;2022-08-19T04:01:42;99855.72;;;18.27;100.00
40930;BME280;26659;47.962;21.652;2022-08-19T04:04:08;99846.50;;;18.28;100.00
40930;BME280;26659;47.962;21.652;2022-08-19T04:06:35;99850.16;;;18.39;100.00
40930;BME280;26659;47.962;21.652;2022-08-19T04:09:04;99847.13;;;18.36;100.00
40930;BME280;26659;47.962;21.652;2022-08-19T04:11:33;99854.56;;;18.45;100.00
40930;BME280;26659;47.962;21.652;2022-08-19T04:13:59;99859.19;;;18.50;100.00
40930;BME280;26659;47.962;21.652;2022-08-19T04:16:26;99868.25;;;18.61;100.00
40930;BME280;26659;47.962;21.652;2022-08-19T04:18:55;99882.91;;;18.65;100.00
40930;BME280;26659;47.962;21.652;2022-08-19T04:21:21;99895.34;;;18.61;100.00
40930;BME280;26659;47.962;21.652;2022-08-19T04:23:48;99901.00;;;18.81;100.00
40930;BME280;26659;47.962;21.652;2022-08-19T04:26:14;99909.50;;;18.90;100.00
40930;BME280;26659;47.962;21.652;2022-08-19T04:28:40;99919.44;;;18.84;100.00
40930;BME280;26659;47.962;21.652;2022-08-19T04:31:06;99924.19;;;18.99;100.00
40930;BME280;26659;47.962;21.652;2022-08-19T04:33:37;99927.44;;;18.96;100.00
40930;BME280;26659;47.962;21.652;2022-08-19T04:36:03;99938.47;;;19.16;100.00
40930;BME280;26659;47.962;21.652;2022-08-19T04:38:28;99926.97;;;19.36;100.00
40930;BME280;26659;47.962;21.652;2022-08-19T04:40:53;99934.53;;;19.34;100.00
40930;BME280;26659;47.962;21.652;2022-08-19T04:43:38;99933.22;;;19.69;100.00
40930;BME280;26659;47.962;21.652;2022-08-19T04:46:11;99927.09;;;19.57;100.00
40930;BME280;26659;47.962;21.652;2022-08-19T04:48:38;99928.19;;;19.56;100.00
40930;BME280;26659;47.962;21.652;2022-08-19T04:51:07;99928.72;;;19.90;100.00
40930;BME280;26659;47.962;21.652;2022-08-19T04:53:34;99923.31;;;19.90;100.00
40930;BME280;26659;47.962;21.652;2022-08-19T04:56:11;99920.00;;;19.83;100.00
40930;BME280;26659;47.962;21.652;2022-08-19T04:58:39;99923.06;;;20.64;100.00
40930;BME280;26659;47.962;21.652;2022-08-19T05:01:08;99914.25;;;20.32;100.00
40930;BME280;26659;47.962;21.652;2022-08-19T05:03:34;99908.75;;;20.22;100.00
40930;BME280;26659;47.962;21.652;2022-08-19T05:06:07;99906.22;;;20.67;100.00
40930;BME280;26659;47.962;21.652;2022-08-19T05:08:34;99903.53;;;20.78;100.00
40930;BME280;26659;47.962;21.652;2022-08-19T05:11:08;99898.63;;;20.75;100.00
40930;BME280;26659;47.962;21.652;2022-08-19T05:13:34;99899.75;;;21.20;100.00
40930;BME280;26659;47.962;21.652;2022-08-19T05:16:00;99902.41;;;21.86;100.00
40930;BME280;26659;47.962;21.652;2022-08-19T05:18:26;99903.03;;;21.37;100.00
40930;BME280;26659;47.962;21.652;2022-08-19T05:21:13;99921.25;;;21.42;100.00
40930;BME280;26659;47.962;21.652;2022-08-19T05:23:58;99926.69;;;21.11;100.00
40930;BME280;26659;47.962;21.652;2022-08-19T05:26:24;99922.06;;;21.11;100.00
40930;BME280;26659;47.962;21.652;2022-08-19T05:28:53;99914.22;;;22.36;100.00
40930;BME280;26659;47.962;21.652;2022-08-19T05:31:20;99912.31;;;22.42;100.00
40930;BME280;26659;47.962;21.652;2022-08-19T05:33:46;99922.88;;;21.53;100.00
40930;BME280;26659;47.962;21.652;2022-08-19T05:36:11;99929.09;;;21.94;100.00
40930;BME280;26659;47.962;21.652;2022-08-19T05:38:37;99928.56;;;22.57;100.00
40930;BME280;26659;47.962;21.652;2022-08-19T05:41:08;99930.06;;;22.29;100.00
40930;BME280;26659;47.962;21.652;2022-08-19T05:43:34;99932.47;;;23.29;100.00
40930;BME280;26659;47.962;21.652;2022-08-19T05:45:59;99935.50;;;23.28;100.00
40930;BME280;26659;47.962;21.652;2022-08-19T05:48:25;99932.09;;;23.75;100.00
40930;BME280;26659;47.962;21.652;2022-08-19T05:50:51;99938.75;;;22.96;100.00
40930;BME280;26659;47.962;21.652;2022-08-19T05:53:17;99942.84;;;22.93;100.00
40930;BME280;26659;47.962;21.652;2022-08-19T05:55:43;99938.19;;;22.44;100.00
40930;BME280;26659;47.962;21.652;2022-08-19T05:58:08;99940.53;;;22.66;100.00
40930;BME280;26659;47.962;21.652;2022-08-19T06:00:35;99936.28;;;22.45;100.00
40930;BME280;26659;47.962;21.652;2022-08-19T06:03:00;99935.41;;;23.38;100.00
40930;BME280;26659;47.962;21.652;2022-08-19T06:05:29;99936.66;;;22.72;100.00
40930;BME280;26659;47.962;21.652;2022-08-19T06:07:55;99940.41;;;22.92;100.00
40930;BME280;26659;47.962;21.652;2022-08-19T06:10:21;99937.56;;;23.75;100.00
40930;BME280;26659;47.962;21.652;2022-08-19T06:12:47;99941.41;;;23.40;100.00
40930;BME280;26659;47.962;21.652;2022-08-19T06:15:14;99927.09;;;24.73;100.00
40930;BME280;26659;47.962;21.652;2022-08-19T06:17:40;99931.44;;;25.12;100.00
40930;BME280;26659;47.962;21.652;2022-08-19T06:20:09;99931.44;;;24.74;100.00
40930;BME280;26659;47.962;21.652;2022-08-19T06:22:45;99925.47;;;24.91;100.00
40930;BME280;26659;47.962;21.652;2022-08-19T06:25:12;99924.56;;;25.48;100.00
40930;BME280;26659;47.962;21.652;2022-08-19T06:27:38;99923.50;;;25.76;100.00
40930;BME280;26659;47.962;21.652;2022-08-19T06:30:04;99912.03;;;25.09;100.00
40930;BME280;26659;47.962;21.652;2022-08-19T06:32:30;99914.56;;;25.24;100.00
40930;BME280;26659;47.962;21.652;2022-08-19T06:34:55;99925.97;;;25.31;100.00
40930;BME280;26659;47.962;21.652;2022-08-19T06:37:21;99919.84;;;25.34;100.00
40930;BME280;26659;47.962;21.652;2022-08-19T06:39:48;99926.78;;;25.78;100.00
40930;BME280;26659;47.962;21.652;2022-08-19T06:42:14;99924.13;;;26.42;100.00
40930;BME280;26659;47.962;21.652;2022-08-19T06:44:43;99936.09;;;26.74;93.74
40930;BME280;26659;47.962;21.652;2022-08-19T06:47:13;99948.19;;;25.76;97.17
40930;BME280;26659;47.962;21.652;2022-08-19T06:49:39;99942.13;;;26.34;100.00
40930;BME280;26659;47.962;21.652;2022-08-19T06:52:05;99944.06;;;25.92;95.23
40930;BME280;26659;47.962;21.652;2022-08-19T06:54:31;99941.63;;;26.05;100.00
40930;BME280;26659;47.962;21.652;2022-08-19T06:56:58;99951.38;;;26.25;98.50
40930;BME280;26659;47.962;21.652;2022-08-19T06:59:24;99947.22;;;25.86;96.10
40930;BME280;26659;47.962;21.652;2022-08-19T07:01:55;99954.22;;;27.33;95.40
40930;BME280;26659;47.962;21.652;2022-08-19T07:04:23;99960.00;;;25.90;94.61
40930;BME280;26659;47.962;21.652;2022-08-19T07:06:50;99957.53;;;25.42;99.02
40930;BME280;26659;47.962;21.652;2022-08-19T07:09:21;99948.13;;;26.36;93.73
40930;BME280;26659;47.962;21.652;2022-08-19T07:11:49;99955.41;;;27.19;92.50
40930;BME280;26659;47.962;21.652;2022-08-19T07:14:17;99948.53;;;27.30;93.39
40930;BME280;26659;47.962;21.652;2022-08-19T07:16:44;99946.66;;;27.17;95.41
40930;BME280;26659;47.962;21.652;2022-08-19T07:19:13;99953.13;;;26.62;89.81
40930;BME280;26659;47.962;21.652;2022-08-19T07:21:38;99946.31;;;26.04;95.22
40930;BME280;26659;47.962;21.652;2022-08-19T07:24:04;99956.78;;;26.16;95.33
40930;BME280;26659;47.962;21.652;2022-08-19T07:26:32;99958.03;;;27.24;90.29
40930;BME280;26659;47.962;21.652;2022-08-19T07:28:58;99962.38;;;27.47;88.49
40930;BME280;26659;47.962;21.652;2022-08-19T07:31:26;99951.47;;;27.87;85.53
40930;BME280;26659;47.962;21.652;2022-08-19T07:33:54;99960.88;;;27.86;86.88
40930;BME280;26659;47.962;21.652;2022-08-19T07:36:27;99952.56;;;27.10;93.80
40930;BME280;26659;47.962;21.652;2022-08-19T07:38:59;99955.53;;;27.90;89.61
40930;BME280;26659;47.962;21.652;2022-08-19T07:41:27;99960.97;;;28.61;87.80
40930;BME280;26659;47.962;21.652;2022-08-19T07:43:54;99950.81;;;27.59;85.90
40930;BME280;26659;47.962;21.652;2022-08-19T07:46:20;99959.66;;;27.11;87.08
40930;BME280;26659;47.962;21.652;2022-08-19T07:48:48;99966.59;;;28.38;84.64
40930;BME280;26659;47.962;21.652;2022-08-19T07:51:17;99973.09;;;28.51;81.78
40930;BME280;26659;47.962;21.652;2022-08-19T07:53:44;99963.56;;;28.57;86.81
40930;BME280;26659;47.962;21.652;2022-08-19T07:56:11;99965.38;;;28.96;85.76
40930;BME280;26659;47.962;21.652;2022-08-19T07:58:38;99961.50;;;29.49;87.36
40930;BME280;26659;47.962;21.652;2022-08-19T08:01:06;99966.84;;;29.63;82.01
40930;BME280;26659;47.962;21.652;2022-08-19T08:03:32;99959.03;;;29.57;81.72
40930;BME280;26659;47.962;21.652;2022-08-19T08:06:17;99961.50;;;28.89;78.65
40930;BME280;26659;47.962;21.652;2022-08-19T08:09:03;99950.31;;;28.76;85.45
40930;BME280;26659;47.962;21.652;2022-08-19T08:11:58;99959.34;;;29.55;81.73
40930;BME280;26659;47.962;21.652;2022-08-19T08:14:28;99956.50;;;29.25;77.29
40930;BME280;26659;47.962;21.652;2022-08-19T08:16:54;99948.97;;;29.78;82.48
40930;BME280;26659;47.962;21.652;2022-08-19T08:19:21;99948.56;;;29.24;75.82
40930;BME280;26659;47.962;21.652;2022-08-19T08:21:49;99952.41;;;28.97;79.41
40930;BME280;26659;47.962;21.652;2022-08-19T08:24:16;99952.97;;;29.89;78.79
40930;BME280;26659;47.962;21.652;2022-08-19T08:26:41;99947.69;;;29.58;80.97
40930;BME280;26659;47.962;21.652;2022-08-19T08:29:10;99958.34;;;29.86;79.67
40930;BME280;26659;47.962;21.652;2022-08-19T08:31:36;99952.81;;;30.33;81.82
40930;BME280;26659;47.962;21.652;2022-08-19T08:34:02;99945.75;;;29.59;76.92
40930;BME280;26659;47.962;21.652;2022-08-19T08:36:28;99955.13;;;29.58;75.47
40930;BME280;26659;47.962;21.652;2022-08-19T08:38:53;99956.31;;;29.39;75.82
40930;BME280;26659;47.962;21.652;2022-08-19T08:41:35;99952.44;;;29.32;75.93
40930;BME280;26659;47.962;21.652;2022-08-19T08:44:03;99941.22;;;29.37;75.64
40930;BME280;26659;47.962;21.652;2022-08-19T08:46:43;99934.78;;;29.15;73.27
40930;BME280;26659;47.962;21.652;2022-08-19T08:51:43;99938.84;;;30.29;75.32
40930;BME280;26659;47.962;21.652;2022-08-19T08:54:13;99937.91;;;30.16;71.36
40930;BME280;26659;47.962;21.652;2022-08-19T08:56:41;99925.63;;;30.43;75.69
40930;BME280;26659;47.962;21.652;2022-08-19T08:59:16;99928.00;;;30.75;70.01
40930;BME280;26659;47.962;21.652;2022-08-19T09:01:44;99922.75;;;31.03;71.06
40930;BME280;26659;47.962;21.652;2022-08-19T09:04:10;99922.75;;;30.82;72.00
40930;BME280;26659;47.962;21.652;2022-08-19T09:06:48;99932.63;;;30.62;69.93
40930;BME280;26659;47.962;21.652;2022-08-19T09:09:23;99926.06;;;31.29;68.90
40930;BME280;26659;47.962;21.652;2022-08-19T09:17:21;99921.94;;;31.02;70.95
40930;BME280;26659;47.962;21.652;2022-08-19T09:20:18;99921.06;;;30.89;67.52
40930;BME280;26659;47.962;21.652;2022-08-19T09:22:44;99920.94;;;30.65;68.20
40930;BME280;26659;47.962;21.652;2022-08-19T09:25:12;99922.50;;;30.75;66.59
40930;BME280;26659;47.962;21.652;2022-08-19T09:27:42;99914.28;;;30.57;68.91
40930;BME280;26659;47.962;21.652;2022-08-19T09:30:12;99911.66;;;31.24;66.47
40930;BME280;26659;47.962;21.652;2022-08-19T09:32:39;99913.78;;;30.85;65.11
40930;BME280;26659;47.962;21.652;2022-08-19T09:35:07;99910.72;;;30.57;66.50
40930;BME280;26659;47.962;21.652;2022-08-19T09:37:33;99910.28;;;31.30;68.75
40930;BME280;26659;47.962;21.652;2022-08-19T09:39:58;99909.13;;;31.64;66.73
40930;BME280;26659;47.962;21.652;2022-08-19T09:42:24;99903.78;;;31.47;67.38
40930;BME280;26659;47.962;21.652;2022-08-19T09:44:49;99915.78;;;31.38;64.53
40930;BME280;26659;47.962;21.652;2022-08-19T09:47:15;99909.44;;;31.38;64.33
40930;BME280;26659;47.962;21.652;2022-08-19T09:49:40;99905.56;;;31.76;66.73
40930;BME280;26659;47.962;21.652;2022-08-19T09:52:08;99899.22;;;31.75;67.69
40930;BME280;26659;47.962;21.652;2022-08-19T09:54:34;99920.13;;;31.85;63.58
40930;BME280;26659;47.962;21.652;2022-08-19T09:57:00;99908.16;;;31.48;64.35
40930;BME280;26659;47.962;21.652;2022-08-19T09:59:26;99913.63;;;31.69;62.00
40930;BME280;26659;47.962;21.652;2022-08-19T10:01:51;99914.59;;;31.39;60.67
40930;BME280;26659;47.962;21.652;2022-08-19T10:04:17;99919.56;;;31.92;61.57
40930;BME280;26659;47.962;21.652;2022-08-19T10:06:43;99912.41;;;32.15;63.20
40930;BME280;26659;47.962;21.652;2022-08-19T10:09:10;99912.28;;;32.36;67.20
40930;BME280;26659;47.962;21.652;2022-08-19T10:11:39;99905.72;;;32.41;65.25
40930;BME280;26659;47.962;21.652;2022-08-19T10:14:05;99906.00;;;32.64;55.88
40930;BME280;26659;47.962;21.652;2022-08-19T10:16:32;99899.47;;;32.56;65.04
40930;BME280;26659;47.962;21.652;2022-08-19T10:18:57;99901.81;;;31.93;58.03
40930;BME280;26659;47.962;21.652;2022-08-19T10:21:28;99892.34;;;31.94;55.44
40930;BME280;26659;47.962;21.652;2022-08-19T10:23:57;99896.13;;;32.13;56.85
40930;BME280;26659;47.962;21.652;2022-08-19T10:26:31;99891.31;;;31.98;56.07
40930;BME280;26659;47.962;21.652;2022-08-19T10:28:57;99885.78;;;31.98;57.28
40930;BME280;26659;47.962;21.652;2022-08-19T10:31:29;99888.31;;;31.91;55.78
40930;BME280;26659;47.962;21.652;2022-08-19T10:33:56;99878.28;;;31.99;57.97
40930;BME280;26659;47.962;21.652;2022-08-19T10:36:34;99881.28;;;32.18;56.28
40930;BME280;26659;47.962;21.652;2022-08-19T10:39:04;99878.88;;;32.04;55.14
40930;BME280;26659;47.962;21.652;2022-08-19T10:41:36;99873.31;;;32.17;56.43
40930;BME280;26659;47.962;21.652;2022-08-19T10:44:05;99866.06;;;32.12;56.32
40930;BME280;26659;47.962;21.652;2022-08-19T10:46:32;99872.94;;;32.30;52.53
40930;BME280;26659;47.962;21.652;2022-08-19T10:48:59;99863.38;;;32.28;54.72
40930;BME280;26659;47.962;21.652;2022-08-19T10:51:25;99861.69;;;32.11;54.47
40930;BME280;26659;47.962;21.652;2022-08-19T10:54:09;99850.59;;;32.11;50.98
40930;BME280;26659;47.962;21.652;2022-08-19T10:56:34;99867.16;;;32.48;49.92
40930;BME280;26659;47.962;21.652;2022-08-19T10:59:22;99856.47;;;32.22;49.16
40930;BME280;26659;47.962;21.652;2022-08-19T11:01:50;99864.09;;;31.88;50.58
40930;BME280;26659;47.962;21.652;2022-08-19T11:04:16;99844.47;;;31.81;50.49
40930;BME280;26659;47.962;21.652;2022-08-19T11:06:47;99853.41;;;32.39;54.04
40930;BME280;26659;47.962;21.652;2022-08-19T11:09:15;99843.06;;;32.24;53.10
40930;BME280;26659;47.962;21.652;2022-08-19T11:11:41;99851.63;;;32.06;50.53
40930;BME280;26659;47.962;21.652;2022-08-19T11:14:10;99851.25;;;32.20;46.36
40930;BME280;26659;47.962;21.652;2022-08-19T11:16:36;99845.63;;;32.17;45.71
40930;BME280;26659;47.962;21.652;2022-08-19T11:19:04;99841.56;;;32.26;48.94
40930;BME280;26659;47.962;21.652;2022-08-19T11:21:33;99840.44;;;32.68;48.64
40930;BME280;26659;47.962;21.652;2022-08-19T11:24:08;99841.53;;;32.39;50.93
40930;BME280;26659;47.962;21.652;2022-08-19T11:26:35;99834.44;;;32.25;47.59
40930;BME280;26659;47.962;21.652;2022-08-19T11:29:02;99829.50;;;32.59;51.68
40930;BME280;26659;47.962;21.652;2022-08-19T11:31:30;99822.91;;;32.11;47.84
40930;BME280;26659;47.962;21.652;2022-08-19T11:33:57;99830.69;;;32.46;45.92
40930;BME280;26659;47.962;21.652;2022-08-19T11:36:25;99823.91;;;32.71;49.92
40930;BME280;26659;47.962;21.652;2022-08-19T11:38:51;99823.09;;;32.71;48.73
40930;BME280;26659;47.962;21.652;2022-08-19T11:41:19;99819.13;;;32.56;50.24
40930;BME280;26659;47.962;21.652;2022-08-19T11:43:45;99815.75;;;32.63;46.80
40930;BME280;26659;47.962;21.652;2022-08-19T11:46:13;99822.16;;;32.51;47.48
40930;BME280;26659;47.962;21.652;2022-08-19T11:48:40;99811.50;;;32.65;47.74
40930;BME280;26659;47.962;21.652;2022-08-19T11:51:11;99818.13;;;32.48;47.59
40930;BME280;26659;47.962;21.652;2022-08-19T11:53:38;99808.84;;;32.84;52.45
40930;BME280;26659;47.962;21.652;2022-08-19T11:56:07;99810.91;;;32.88;48.89
40930;BME280;26659;47.962;21.652;2022-08-19T11:58:33;99814.59;;;32.64;46.48
40930;BME280;26659;47.962;21.652;2022-08-19T12:00:59;99817.31;;;32.48;47.14
40930;BME280;26659;47.962;21.652;2022-08-19T12:03:25;99805.16;;;32.65;48.11
40930;BME280;26659;47.962;21.652;2022-08-19T12:05:51;99803.75;;;32.87;48.98
40930;BME280;26659;47.962;21.652;2022-08-19T12:08:17;99807.66;;;32.70;48.52
40930;BME280;26659;47.962;21.652;2022-08-19T12:10:42;99800.50;;;32.69;48.00
40930;BME280;26659;47.962;21.652;2022-08-19T12:13:12;99807.06;;;32.92;48.02
40930;BME280;26659;47.962;21.652;2022-08-19T12:15:41;99798.03;;;32.79;49.19
40930;BME280;26659;47.962;21.652;2022-08-19T12:18:07;99803.56;;;32.79;50.38
40930;BME280;26659;47.962;21.652;2022-08-19T12:20:38;99808.28;;;32.79;51.11
40930;BME280;26659;47.962;21.652;2022-08-19T12:23:06;99800.94;;;32.71;54.55
40930;BME280;26659;47.962;21.652;2022-08-19T12:25:32;99798.22;;;32.87;50.42
40930;BME280;26659;47.962;21.652;2022-08-19T12:27:58;99795.94;;;33.04;48.01
40930;BME280;26659;47.962;21.652;2022-08-19T12:30:23;99795.25;;;32.79;46.37
40930;BME280;26659;47.962;21.652;2022-08-19T12:32:49;99792.63;;;33.15;49.07
40930;BME280;26659;47.962;21.652;2022-08-19T12:35:16;99792.69;;;32.87;48.00
40930;BME280;26659;47.962;21.652;2022-08-19T12:37:42;99791.50;;;32.88;46.40
40930;BME280;26659;47.962;21.652;2022-08-19T12:40:10;99789.63;;;32.92;47.47
40930;BME280;26659;47.962;21.652;2022-08-19T12:42:38;99782.16;;;33.08;47.82
40930;BME280;26659;47.962;21.652;2022-08-19T12:45:07;99787.66;;;33.20;48.59
40930;BME280;26659;47.962;21.652;2022-08-19T12:47:32;99783.53;;;33.14;48.14
40930;BME280;26659;47.962;21.652;2022-08-19T12:49:58;99778.16;;;33.21;47.81
40930;BME280;26659;47.962;21.652;2022-08-19T12:52:25;99781.38;;;33.55;46.54
40930;BME280;26659;47.962;21.652;2022-08-19T12:54:53;99769.50;;;33.23;46.98
40930;BME280;26659;47.962;21.652;2022-08-19T12:57:19;99763.84;;;33.35;45.29